Etusivu
METAR-TAF:

METAR-TAF

Lentoasemat :

Peachtree City Airport (Falcon Field)

Atlanta, Georgia, Yhdysvallat

Leveyspiiri: 33-21-19N, Pituuspiiri: 084-34-01W, korkeus merenpinnasta: 246 m

Tämänhetkinen sää

Tämä raportti tehtiin 15 minuuttia sitten, kello 14.53 UTC
Tuuli 3 kn eri suunnista
Lämpötila 13°C
Kosteus 94%
Ilmanpaine 1014 hPa
Näkyvyys: 2.0 km
Pilvistä 600 ft:n korkeudessa
sadetta, utua

METAR: KFFC 191453Z AUTO VRB03KT 1 1/4SM RA BR OVC006 13/12 A2994 RMK AO2 RAB07 SLP137 P0004 60009 T01330122 58002

Aika: 11:08 (15:08 UTC)


TAF: puuttuu

Säähavainnot ja -ennusteet yli 4000 lentoasemalta (METAR- ja TAF-raportit).

Käytössä olevat sääasemat on merkitty karttaan keltaisilla ja punaisilla pisteillä.

Aseta hiiri pisteen päälle nähdäksesi sääaseman nimen.

Klikkaa sitten nähdäksesi säähavainnot ja -ennusteet.

Kartan vaihtaminen: klikkaa mustalla rastilla varustettuja vihreitä pisteitä, niin voit zoomata sisään; viivalla varustettua vihreää pistettä, niin voit zoomata ulos tai vihreitä nuolia, niin pääset viereisille kartoille.


METAR-TAF: